sensor_id;sensor_type;location;lat;lon;timestamp;temperature;humidity
18597;DHT22;9428;50.950;6.912;2023-08-21T00:02:46;22.30;99.90
18597;DHT22;9428;50.950;6.912;2023-08-21T00:05:33;22.30;99.90
18597;DHT22;9428;50.950;6.912;2023-08-21T00:08:20;22.30;99.90
18597;DHT22;9428;50.950;6.912;2023-08-21T00:11:09;22.30;99.90
18597;DHT22;9428;50.950;6.912;2023-08-21T00:13:56;22.30;99.90
18597;DHT22;9428;50.950;6.912;2023-08-21T00:16:43;22.10;99.90
18597;DHT22;9428;50.950;6.912;2023-08-21T00:19:31;22.00;99.90
18597;DHT22;9428;50.950;6.912;2023-08-21T00:22:18;21.90;99.90
18597;DHT22;9428;50.950;6.912;2023-08-21T00:25:06;21.90;99.90
18597;DHT22;9428;50.950;6.912;2023-08-21T00:27:55;21.90;99.90
18597;DHT22;9428;50.950;6.912;2023-08-21T00:30:42;22.00;99.90
18597;DHT22;9428;50.950;6.912;2023-08-21T00:33:30;21.90;99.90
18597;DHT22;9428;50.950;6.912;2023-08-21T00:36:17;21.90;99.90
18597;DHT22;9428;50.950;6.912;2023-08-21T00:39:05;21.80;99.90
18597;DHT22;9428;50.950;6.912;2023-08-21T00:41:53;21.80;99.90
18597;DHT22;9428;50.950;6.912;2023-08-21T00:44:42;21.70;99.90
18597;DHT22;9428;50.950;6.912;2023-08-21T00:47:29;21.70;99.90
18597;DHT22;9428;50.950;6.912;2023-08-21T00:50:16;21.70;99.90
18597;DHT22;9428;50.950;6.912;2023-08-21T00:53:04;21.60;99.90
18597;DHT22;9428;50.950;6.912;2023-08-21T00:55:52;21.60;99.90
18597;DHT22;9428;50.950;6.912;2023-08-21T00:58:40;21.50;99.90
18597;DHT22;9428;50.950;6.912;2023-08-21T01:01:28;21.50;99.90
18597;DHT22;9428;50.950;6.912;2023-08-21T01:04:16;21.50;99.90
18597;DHT22;9428;50.950;6.912;2023-08-21T01:07:03;21.60;99.90
18597;DHT22;9428;50.950;6.912;2023-08-21T01:10:01;21.50;99.90
18597;DHT22;9428;50.950;6.912;2023-08-21T01:12:54;21.40;99.90
18597;DHT22;9428;50.950;6.912;2023-08-21T01:15:45;21.40;99.90
18597;DHT22;9428;50.950;6.912;2023-08-21T01:18:34;21.40;99.90
18597;DHT22;9428;50.950;6.912;2023-08-21T01:21:22;21.50;99.90
18597;DHT22;9428;50.950;6.912;2023-08-21T01:24:12;21.50;99.90
18597;DHT22;9428;50.950;6.912;2023-08-21T01:26:59;21.50;99.90
18597;DHT22;9428;50.950;6.912;2023-08-21T01:29:46;21.50;99.90
18597;DHT22;9428;50.950;6.912;2023-08-21T01:32:40;21.40;99.90
18597;DHT22;9428;50.950;6.912;2023-08-21T01:35:29;21.40;99.90
18597;DHT22;9428;50.950;6.912;2023-08-21T01:38:17;21.30;99.90
18597;DHT22;9428;50.950;6.912;2023-08-21T01:41:06;21.20;99.90
18597;DHT22;9428;50.950;6.912;2023-08-21T01:43:53;21.20;99.90
18597;DHT22;9428;50.950;6.912;2023-08-21T01:46:40;20.40;99.90
18597;DHT22;9428;50.950;6.912;2023-08-21T01:49:27;21.20;99.90
18597;DHT22;9428;50.950;6.912;2023-08-21T01:52:15;21.10;99.90
18597;DHT22;9428;50.950;6.912;2023-08-21T01:55:02;21.20;99.90
18597;DHT22;9428;50.950;6.912;2023-08-21T01:57:51;21.20;99.90
18597;DHT22;9428;50.950;6.912;2023-08-21T02:00:38;21.10;99.90
18597;DHT22;9428;50.950;6.912;2023-08-21T02:03:26;21.10;99.90
18597;DHT22;9428;50.950;6.912;2023-08-21T02:06:13;21.20;99.90
18597;DHT22;9428;50.950;6.912;2023-08-21T02:09:01;21.20;99.90
18597;DHT22;9428;50.950;6.912;2023-08-21T02:11:48;21.00;99.90
18597;DHT22;9428;50.950;6.912;2023-08-21T02:14:36;21.10;99.90
18597;DHT22;9428;50.950;6.912;2023-08-21T02:17:26;21.00;99.90
18597;DHT22;9428;50.950;6.912;2023-08-21T02:20:13;20.90;99.90
18597;DHT22;9428;50.950;6.912;2023-08-21T02:23:00;21.00;99.90
18597;DHT22;9428;50.950;6.912;2023-08-21T02:25:47;20.80;99.90
18597;DHT22;9428;50.950;6.912;2023-08-21T02:28:35;20.70;99.90
18597;DHT22;9428;50.950;6.912;2023-08-21T02:31:23;20.70;99.90
18597;DHT22;9428;50.950;6.912;2023-08-21T02:34:11;20.70;99.90
18597;DHT22;9428;50.950;6.912;2023-08-21T02:36:58;20.90;99.90
18597;DHT22;9428;50.950;6.912;2023-08-21T02:39:45;20.90;99.90
18597;DHT22;9428;50.950;6.912;2023-08-21T02:42:32;20.80;99.90
18597;DHT22;9428;50.950;6.912;2023-08-21T02:45:20;20.80;99.90
18597;DHT22;9428;50.950;6.912;2023-08-21T02:48:08;20.90;99.90
18597;DHT22;9428;50.950;6.912;2023-08-21T02:50:55;20.80;99.90
18597;DHT22;9428;50.950;6.912;2023-08-21T02:53:43;20.50;99.90
18597;DHT22;9428;50.950;6.912;2023-08-21T02:56:30;20.60;99.90
18597;DHT22;9428;50.950;6.912;2023-08-21T02:59:17;20.60;99.90
18597;DHT22;9428;50.950;6.912;2023-08-21T03:02:08;20.70;99.90
18597;DHT22;9428;50.950;6.912;2023-08-21T03:05:01;20.80;99.90
18597;DHT22;9428;50.950;6.912;2023-08-21T03:07:52;20.80;99.90
18597;DHT22;9428;50.950;6.912;2023-08-21T03:10:40;20.90;99.90
18597;DHT22;9428;50.950;6.912;2023-08-21T03:13:28;20.90;99.90
18597;DHT22;9428;50.950;6.912;2023-08-21T03:16:15;20.80;99.90
18597;DHT22;9428;50.950;6.912;2023-08-21T03:19:02;20.80;99.90
18597;DHT22;9428;50.950;6.912;2023-08-21T03:21:51;20.70;99.90
18597;DHT22;9428;50.950;6.912;2023-08-21T03:24:38;20.70;99.90
18597;DHT22;9428;50.950;6.912;2023-08-21T03:27:25;20.60;99.90
18597;DHT22;9428;50.950;6.912;2023-08-21T03:30:12;20.50;99.90
18597;DHT22;9428;50.950;6.912;2023-08-21T03:33:00;20.40;99.90
18597;DHT22;9428;50.950;6.912;2023-08-21T03:35:53;20.40;99.90
18597;DHT22;9428;50.950;6.912;2023-08-21T03:38:42;20.50;99.90
18597;DHT22;9428;50.950;6.912;2023-08-21T03:41:29;20.70;99.90
18597;DHT22;9428;50.950;6.912;2023-08-21T03:44:16;20.70;99.90
18597;DHT22;9428;50.950;6.912;2023-08-21T03:47:03;20.70;99.90
18597;DHT22;9428;50.950;6.912;2023-08-21T03:49:51;20.70;99.90
18597;DHT22;9428;50.950;6.912;2023-08-21T03:52:38;20.60;99.90
18597;DHT22;9428;50.950;6.912;2023-08-21T03:55:26;20.60;99.90
18597;DHT22;9428;50.950;6.912;2023-08-21T03:58:14;20.60;99.90
18597;DHT22;9428;50.950;6.912;2023-08-21T04:01:02;20.60;99.90
18597;DHT22;9428;50.950;6.912;2023-08-21T04:03:49;20.70;99.90
18597;DHT22;9428;50.950;6.912;2023-08-21T04:06:36;20.80;99.90
18597;DHT22;9428;50.950;6.912;2023-08-21T04:09:23;20.70;99.90
18597;DHT22;9428;50.950;6.912;2023-08-21T04:12:12;20.60;99.90
18597;DHT22;9428;50.950;6.912;2023-08-21T04:14:59;20.70;99.90
18597;DHT22;9428;50.950;6.912;2023-08-21T04:17:46;20.80;99.90
18597;DHT22;9428;50.950;6.912;2023-08-21T04:20:34;20.80;99.90
18597;DHT22;9428;50.950;6.912;2023-08-21T04:23:21;20.60;99.90
18597;DHT22;9428;50.950;6.912;2023-08-21T04:26:08;20.50;99.90
18597;DHT22;9428;50.950;6.912;2023-08-21T04:28:57;20.50;99.90
18597;DHT22;9428;50.950;6.912;2023-08-21T04:31:44;20.70;99.90
18597;DHT22;9428;50.950;6.912;2023-08-21T04:34:32;20.80;99.90
18597;DHT22;9428;50.950;6.912;2023-08-21T04:37:19;20.60;99.90
18597;DHT22;9428;50.950;6.912;2023-08-21T04:40:08;20.60;99.90
18597;DHT22;9428;50.950;6.912;2023-08-21T04:42:55;20.50;99.90
18597;DHT22;9428;50.950;6.912;2023-08-21T04:45:48;20.50;99.90
18597;DHT22;9428;50.950;6.912;2023-08-21T04:48:36;20.60;99.90
18597;DHT22;9428;50.950;6.912;2023-08-21T04:51:23;20.60;99.90
18597;DHT22;9428;50.950;6.912;2023-08-21T04:54:10;20.70;99.90
18597;DHT22;9428;50.950;6.912;2023-08-21T04:56:58;20.60;99.90
18597;DHT22;9428;50.950;6.912;2023-08-21T04:59:45;20.50;99.90
18597;DHT22;9428;50.950;6.912;2023-08-21T05:02:33;20.50;99.90
18597;DHT22;9428;50.950;6.912;2023-08-21T05:05:20;20.50;99.90
18597;DHT22;9428;50.950;6.912;2023-08-21T05:08:08;20.50;99.90
18597;DHT22;9428;50.950;6.912;2023-08-21T05:10:55;20.50;99.90
18597;DHT22;9428;50.950;6.912;2023-08-21T05:13:42;20.60;99.90
18597;DHT22;9428;50.950;6.912;2023-08-21T05:16:30;20.50;99.90
18597;DHT22;9428;50.950;6.912;2023-08-21T05:19:18;20.50;99.90
18597;DHT22;9428;50.950;6.912;2023-08-21T05:22:06;20.50;99.90
18597;DHT22;9428;50.950;6.912;2023-08-21T05:24:53;20.50;99.90
18597;DHT22;9428;50.950;6.912;2023-08-21T05:27:40;20.50;99.90
18597;DHT22;9428;50.950;6.912;2023-08-21T05:30:27;20.50;99.90
18597;DHT22;9428;50.950;6.912;2023-08-21T05:33:15;20.60;99.90
18597;DHT22;9428;50.950;6.912;2023-08-21T05:36:04;20.60;99.90
18597;DHT22;9428;50.950;6.912;2023-08-21T05:38:51;20.60;99.90
18597;DHT22;9428;50.950;6.912;2023-08-21T05:41:38;20.60;99.90
18597;DHT22;9428;50.950;6.912;2023-08-21T05:44:26;20.60;99.90
18597;DHT22;9428;50.950;6.912;2023-08-21T05:47:13;20.60;99.90
18597;DHT22;9428;50.950;6.912;2023-08-21T05:50:00;20.60;99.90
18597;DHT22;9428;50.950;6.912;2023-08-21T05:52:49;20.70;99.90
18597;DHT22;9428;50.950;6.912;2023-08-21T05:55:37;20.70;99.90
18597;DHT22;9428;50.950;6.912;2023-08-21T05:58:24;20.70;99.90
18597;DHT22;9428;50.950;6.912;2023-08-21T06:01:15;20.90;99.90
18597;DHT22;9428;50.950;6.912;2023-08-21T06:04:03;21.00;99.90
18597;DHT22;9428;50.950;6.912;2023-08-21T06:06:50;21.00;99.90
18597;DHT22;9428;50.950;6.912;2023-08-21T06:09:39;21.10;99.90
18597;DHT22;9428;50.950;6.912;2023-08-21T06:12:26;21.10;99.90
18597;DHT22;9428;50.950;6.912;2023-08-21T06:15:14;21.10;99.90
18597;DHT22;9428;50.950;6.912;2023-08-21T06:18:01;21.00;99.90
18597;DHT22;9428;50.950;6.912;2023-08-21T06:20:48;21.10;99.90
18597;DHT22;9428;50.950;6.912;2023-08-21T06:23:39;21.10;99.90
18597;DHT22;9428;50.950;6.912;2023-08-21T06:26:27;21.10;99.90
18597;DHT22;9428;50.950;6.912;2023-08-21T06:29:14;21.10;99.90
18597;DHT22;9428;50.950;6.912;2023-08-21T06:32:02;21.10;99.90
18597;DHT22;9428;50.950;6.912;2023-08-21T06:34:49;21.10;99.90
18597;DHT22;9428;50.950;6.912;2023-08-21T06:37:36;21.20;99.90
18597;DHT22;9428;50.950;6.912;2023-08-21T06:40:23;21.20;99.90
18597;DHT22;9428;50.950;6.912;2023-08-21T06:43:12;21.10;99.90
18597;DHT22;9428;50.950;6.912;2023-08-21T06:45:59;21.10;99.90
18597;DHT22;9428;50.950;6.912;2023-08-21T06:48:46;21.20;99.90
18597;DHT22;9428;50.950;6.912;2023-08-21T06:51:36;21.20;99.90
18597;DHT22;9428;50.950;6.912;2023-08-21T06:54:23;21.30;99.90
18597;DHT22;9428;50.950;6.912;2023-08-21T06:57:10;21.30;99.90
18597;DHT22;9428;50.950;6.912;2023-08-21T06:59:59;21.30;99.90
18597;DHT22;9428;50.950;6.912;2023-08-21T07:02:47;21.30;99.90
18597;DHT22;9428;50.950;6.912;2023-08-21T07:05:34;21.40;99.90
18597;DHT22;9428;50.950;6.912;2023-08-21T07:08:21;21.40;99.90
18597;DHT22;9428;50.950;6.912;2023-08-21T07:11:08;21.40;99.90
18597;DHT22;9428;50.950;6.912;2023-08-21T07:13:56;21.40;99.90
18597;DHT22;9428;50.950;6.912;2023-08-21T07:16:44;21.50;99.90
18597;DHT22;9428;50.950;6.912;2023-08-21T07:19:32;21.60;99.90
18597;DHT22;9428;50.950;6.912;2023-08-21T07:22:19;21.60;99.90
18597;DHT22;9428;50.950;6.912;2023-08-21T07:25:07;21.80;99.90
18597;DHT22;9428;50.950;6.912;2023-08-21T07:27:55;21.80;99.90
18597;DHT22;9428;50.950;6.912;2023-08-21T07:30:42;21.90;99.90
18597;DHT22;9428;50.950;6.912;2023-08-21T07:33:31;21.90;99.90
18597;DHT22;9428;50.950;6.912;2023-08-21T07:36:19;21.90;99.90
18597;DHT22;9428;50.950;6.912;2023-08-21T07:39:06;22.00;99.90
18597;DHT22;9428;50.950;6.912;2023-08-21T07:41:53;22.10;99.90
18597;DHT22;9428;50.950;6.912;2023-08-21T07:44:40;22.10;99.90
18597;DHT22;9428;50.950;6.912;2023-08-21T07:47:28;22.10;99.90
18597;DHT22;9428;50.950;6.912;2023-08-21T07:50:16;22.20;99.90
18597;DHT22;9428;50.950;6.912;2023-08-21T07:53:04;22.10;99.90
18597;DHT22;9428;50.950;6.912;2023-08-21T07:55:51;22.20;99.90
18597;DHT22;9428;50.950;6.912;2023-08-21T07:58:38;22.30;99.90
18597;DHT22;9428;50.950;6.912;2023-08-21T08:01:25;22.40;99.90
18597;DHT22;9428;50.950;6.912;2023-08-21T08:04:13;22.40;99.90
18597;DHT22;9428;50.950;6.912;2023-08-21T08:07:01;22.50;99.90
18597;DHT22;9428;50.950;6.912;2023-08-21T08:09:49;22.50;99.90
18597;DHT22;9428;50.950;6.912;2023-08-21T08:12:37;22.50;99.90
18597;DHT22;9428;50.950;6.912;2023-08-21T08:15:27;22.60;99.90
18597;DHT22;9428;50.950;6.912;2023-08-21T08:18:15;22.60;99.90
18597;DHT22;9428;50.950;6.912;2023-08-21T08:21:02;22.80;99.90
18597;DHT22;9428;50.950;6.912;2023-08-21T08:23:51;22.70;99.90
18597;DHT22;9428;50.950;6.912;2023-08-21T08:26:38;22.70;99.90
18597;DHT22;9428;50.950;6.912;2023-08-21T08:29:26;22.70;99.90
18597;DHT22;9428;50.950;6.912;2023-08-21T08:32:13;22.80;99.90
18597;DHT22;9428;50.950;6.912;2023-08-21T08:35:01;22.80;99.90
18597;DHT22;9428;50.950;6.912;2023-08-21T08:37:48;22.90;99.90
18597;DHT22;9428;50.950;6.912;2023-08-21T08:40:43;22.90;99.90
18597;DHT22;9428;50.950;6.912;2023-08-21T08:43:31;22.80;99.90
18597;DHT22;9428;50.950;6.912;2023-08-21T08:46:19;22.90;99.90
18597;DHT22;9428;50.950;6.912;2023-08-21T08:49:07;22.90;99.90
18597;DHT22;9428;50.950;6.912;2023-08-21T08:51:54;22.70;99.90
18597;DHT22;9428;50.950;6.912;2023-08-21T08:54:42;22.90;99.90
18597;DHT22;9428;50.950;6.912;2023-08-21T08:57:30;23.00;99.90
18597;DHT22;9428;50.950;6.912;2023-08-21T09:00:18;23.00;99.90
18597;DHT22;9428;50.950;6.912;2023-08-21T09:03:05;23.00;99.90
18597;DHT22;9428;50.950;6.912;2023-08-21T09:05:53;23.00;99.90
18597;DHT22;9428;50.950;6.912;2023-08-21T09:08:53;23.00;99.90
18597;DHT22;9428;50.950;6.912;2023-08-21T09:11:43;23.10;99.90
18597;DHT22;9428;50.950;6.912;2023-08-21T09:14:32;23.10;99.90
18597;DHT22;9428;50.950;6.912;2023-08-21T09:17:19;23.10;99.90
18597;DHT22;9428;50.950;6.912;2023-08-21T09:20:07;23.20;99.90
18597;DHT22;9428;50.950;6.912;2023-08-21T09:22:55;23.20;99.90
18597;DHT22;9428;50.950;6.912;2023-08-21T09:25:44;23.30;99.90
18597;DHT22;9428;50.950;6.912;2023-08-21T09:28:33;23.30;99.90
18597;DHT22;9428;50.950;6.912;2023-08-21T09:31:29;23.30;99.90
18597;DHT22;9428;50.950;6.912;2023-08-21T09:34:17;23.30;99.90
18597;DHT22;9428;50.950;6.912;2023-08-21T09:37:06;23.40;99.90
18597;DHT22;9428;50.950;6.912;2023-08-21T09:39:54;23.60;99.90
18597;DHT22;9428;50.950;6.912;2023-08-21T09:42:41;23.40;99.90
18597;DHT22;9428;50.950;6.912;2023-08-21T09:45:29;23.40;99.90
18597;DHT22;9428;50.950;6.912;2023-08-21T09:48:19;23.40;99.90
18597;DHT22;9428;50.950;6.912;2023-08-21T09:51:07;23.50;99.90
18597;DHT22;9428;50.950;6.912;2023-08-21T09:53:55;23.50;99.90
18597;DHT22;9428;50.950;6.912;2023-08-21T09:56:46;23.70;99.90
18597;DHT22;9428;50.950;6.912;2023-08-21T09:59:35;23.70;99.90
18597;DHT22;9428;50.950;6.912;2023-08-21T10:02:26;23.60;99.90
18597;DHT22;9428;50.950;6.912;2023-08-21T10:05:18;23.50;99.90
18597;DHT22;9428;50.950;6.912;2023-08-21T10:08:07;23.50;99.90
18597;DHT22;9428;50.950;6.912;2023-08-21T10:10:56;23.60;99.90
18597;DHT22;9428;50.950;6.912;2023-08-21T10:13:45;23.60;99.90
18597;DHT22;9428;50.950;6.912;2023-08-21T10:16:32;23.60;99.90
18597;DHT22;9428;50.950;6.912;2023-08-21T10:19:19;23.80;99.90
18597;DHT22;9428;50.950;6.912;2023-08-21T10:22:08;23.70;99.90
18597;DHT22;9428;50.950;6.912;2023-08-21T10:24:59;23.70;99.90
18597;DHT22;9428;50.950;6.912;2023-08-21T10:27:48;23.70;99.90
18597;DHT22;9428;50.950;6.912;2023-08-21T10:30:37;23.70;99.90
18597;DHT22;9428;50.950;6.912;2023-08-21T10:33:47;23.70;99.90
18597;DHT22;9428;50.950;6.912;2023-08-21T10:37:08;23.80;99.90
18597;DHT22;9428;50.950;6.912;2023-08-21T10:39:58;23.70;99.90
18597;DHT22;9428;50.950;6.912;2023-08-21T10:42:45;23.90;99.90
18597;DHT22;9428;50.950;6.912;2023-08-21T10:45:32;24.20;99.90
18597;DHT22;9428;50.950;6.912;2023-08-21T10:48:19;24.20;99.90
18597;DHT22;9428;50.950;6.912;2023-08-21T10:51:07;24.10;99.90
18597;DHT22;9428;50.950;6.912;2023-08-21T10:53:56;24.10;99.90
18597;DHT22;9428;50.950;6.912;2023-08-21T10:56:43;24.20;99.90
18597;DHT22;9428;50.950;6.912;2023-08-21T10:59:30;24.30;99.90
18597;DHT22;9428;50.950;6.912;2023-08-21T11:02:18;24.20;99.90
18597;DHT22;9428;50.950;6.912;2023-08-21T11:05:06;24.10;99.90
18597;DHT22;9428;50.950;6.912;2023-08-21T11:07:54;24.20;99.90
18597;DHT22;9428;50.950;6.912;2023-08-21T11:10:42;24.20;99.90
18597;DHT22;9428;50.950;6.912;2023-08-21T11:13:29;24.20;99.90
18597;DHT22;9428;50.950;6.912;2023-08-21T11:16:17;24.10;99.90
18597;DHT22;9428;50.950;6.912;2023-08-21T11:19:04;24.30;99.90
18597;DHT22;9428;50.950;6.912;2023-08-21T11:21:51;24.40;99.90
18597;DHT22;9428;50.950;6.912;2023-08-21T11:24:43;24.60;99.90
18597;DHT22;9428;50.950;6.912;2023-08-21T11:27:32;24.60;99.90
18597;DHT22;9428;50.950;6.912;2023-08-21T11:30:22;24.70;99.90
18597;DHT22;9428;50.950;6.912;2023-08-21T11:33:10;24.90;99.90
18597;DHT22;9428;50.950;6.912;2023-08-21T11:35:59;25.10;99.90
18597;DHT22;9428;50.950;6.912;2023-08-21T11:38:58;24.80;99.90
18597;DHT22;9428;50.950;6.912;2023-08-21T11:41:56;24.90;99.90
18597;DHT22;9428;50.950;6.912;2023-08-21T11:44:47;25.20;99.90
18597;DHT22;9428;50.950;6.912;2023-08-21T11:47:34;25.40;99.90
18597;DHT22;9428;50.950;6.912;2023-08-21T11:50:22;25.10;99.90
18597;DHT22;9428;50.950;6.912;2023-08-21T11:53:09;25.10;99.90
18597;DHT22;9428;50.950;6.912;2023-08-21T11:55:58;24.90;99.90
18597;DHT22;9428;50.950;6.912;2023-08-21T11:58:46;24.90;99.90
18597;DHT22;9428;50.950;6.912;2023-08-21T12:01:36;25.00;99.90
18597;DHT22;9428;50.950;6.912;2023-08-21T12:04:24;25.20;99.90
18597;DHT22;9428;50.950;6.912;2023-08-21T12:07:12;25.10;99.90
18597;DHT22;9428;50.950;6.912;2023-08-21T12:09:59;25.30;99.90
18597;DHT22;9428;50.950;6.912;2023-08-21T12:12:47;25.40;99.90
18597;DHT22;9428;50.950;6.912;2023-08-21T12:15:34;25.30;99.90
18597;DHT22;9428;50.950;6.912;2023-08-21T12:18:23;25.30;99.90
18597;DHT22;9428;50.950;6.912;2023-08-21T12:21:10;25.50;99.90
18597;DHT22;9428;50.950;6.912;2023-08-21T12:23:57;25.30;99.90
18597;DHT22;9428;50.950;6.912;2023-08-21T12:26:44;25.20;99.90
18597;DHT22;9428;50.950;6.912;2023-08-21T12:29:31;25.10;99.90
18597;DHT22;9428;50.950;6.912;2023-08-21T12:32:18;25.20;99.90
18597;DHT22;9428;50.950;6.912;2023-08-21T12:35:08;25.30;99.90
18597;DHT22;9428;50.950;6.912;2023-08-21T12:37:58;25.40;99.90
18597;DHT22;9428;50.950;6.912;2023-08-21T12:40:51;25.20;99.90
18597;DHT22;9428;50.950;6.912;2023-08-21T12:43:38;25.30;99.90
18597;DHT22;9428;50.950;6.912;2023-08-21T12:46:25;25.30;99.90
18597;DHT22;9428;50.950;6.912;2023-08-21T12:49:13;25.40;99.90
18597;DHT22;9428;50.950;6.912;2023-08-21T12:52:02;25.40;99.90
18597;DHT22;9428;50.950;6.912;2023-08-21T12:54:50;25.10;99.90
18597;DHT22;9428;50.950;6.912;2023-08-21T12:57:37;25.20;99.90
18597;DHT22;9428;50.950;6.912;2023-08-21T13:00:24;25.20;99.90
18597;DHT22;9428;50.950;6.912;2023-08-21T13:03:12;25.20;99.90
18597;DHT22;9428;50.950;6.912;2023-08-21T13:05:59;25.50;99.90
18597;DHT22;9428;50.950;6.912;2023-08-21T13:08:47;25.50;99.90
18597;DHT22;9428;50.950;6.912;2023-08-21T13:11:35;25.40;99.90
18597;DHT22;9428;50.950;6.912;2023-08-21T13:14:22;25.90;99.90
18597;DHT22;9428;50.950;6.912;2023-08-21T13:17:09;25.60;99.90
18597;DHT22;9428;50.950;6.912;2023-08-21T13:19:56;25.40;99.90
18597;DHT22;9428;50.950;6.912;2023-08-21T13:22:45;25.50;99.90
18597;DHT22;9428;50.950;6.912;2023-08-21T13:25:34;25.60;99.90
18597;DHT22;9428;50.950;6.912;2023-08-21T13:28:21;25.60;99.90
18597;DHT22;9428;50.950;6.912;2023-08-21T13:31:08;25.50;99.90
18597;DHT22;9428;50.950;6.912;2023-08-21T13:33:57;25.50;99.90
18597;DHT22;9428;50.950;6.912;2023-08-21T13:36:44;25.50;99.90
18597;DHT22;9428;50.950;6.912;2023-08-21T13:39:31;25.30;99.90
18597;DHT22;9428;50.950;6.912;2023-08-21T13:42:20;25.40;99.90
18597;DHT22;9428;50.950;6.912;2023-08-21T13:45:08;25.50;99.90
18597;DHT22;9428;50.950;6.912;2023-08-21T13:47:57;25.50;99.90
18597;DHT22;9428;50.950;6.912;2023-08-21T13:50:44;25.50;99.90
18597;DHT22;9428;50.950;6.912;2023-08-21T13:53:31;25.80;99.90
18597;DHT22;9428;50.950;6.912;2023-08-21T13:56:19;25.80;99.90
18597;DHT22;9428;50.950;6.912;2023-08-21T13:59:07;25.80;99.90
18597;DHT22;9428;50.950;6.912;2023-08-21T14:01:54;25.70;99.90
18597;DHT22;9428;50.950;6.912;2023-08-21T14:04:41;25.60;99.90
18597;DHT22;9428;50.950;6.912;2023-08-21T14:07:29;26.00;99.90
18597;DHT22;9428;50.950;6.912;2023-08-21T14:10:16;25.80;99.90
18597;DHT22;9428;50.950;6.912;2023-08-21T14:13:03;25.90;99.90
18597;DHT22;9428;50.950;6.912;2023-08-21T14:15:55;26.00;99.90
18597;DHT22;9428;50.950;6.912;2023-08-21T14:18:42;25.70;99.90
18597;DHT22;9428;50.950;6.912;2023-08-21T14:21:29;25.60;99.90
18597;DHT22;9428;50.950;6.912;2023-08-21T14:24:16;25.60;99.90
18597;DHT22;9428;50.950;6.912;2023-08-21T14:27:04;25.60;99.90
18597;DHT22;9428;50.950;6.912;2023-08-21T14:29:51;25.60;99.90
18597;DHT22;9428;50.950;6.912;2023-08-21T14:32:40;25.70;99.90
18597;DHT22;9428;50.950;6.912;2023-08-21T14:35:28;25.70;99.90
18597;DHT22;9428;50.950;6.912;2023-08-21T14:38:15;25.60;99.90
18597;DHT22;9428;50.950;6.912;2023-08-21T14:41:02;25.80;99.90
18597;DHT22;9428;50.950;6.912;2023-08-21T14:43:50;25.80;99.90
18597;DHT22;9428;50.950;6.912;2023-08-21T14:46:37;25.70;99.90
18597;DHT22;9428;50.950;6.912;2023-08-21T14:49:26;25.90;99.90
18597;DHT22;9428;50.950;6.912;2023-08-21T14:52:13;26.00;99.90
18597;DHT22;9428;50.950;6.912;2023-08-21T14:55:00;25.80;99.90
18597;DHT22;9428;50.950;6.912;2023-08-21T14:57:47;25.90;99.90
18597;DHT22;9428;50.950;6.912;2023-08-21T15:00:35;25.70;99.90
18597;DHT22;9428;50.950;6.912;2023-08-21T15:03:22;25.70;99.90
18597;DHT22;9428;50.950;6.912;2023-08-21T15:06:11;25.60;99.90
18597;DHT22;9428;50.950;6.912;2023-08-21T15:08:59;25.80;99.90
18597;DHT22;9428;50.950;6.912;2023-08-21T15:11:46;25.80;99.90
18597;DHT22;9428;50.950;6.912;2023-08-21T15:14:33;25.80;99.90
18597;DHT22;9428;50.950;6.912;2023-08-21T15:17:20;25.60;99.90
18597;DHT22;9428;50.950;6.912;2023-08-21T15:20:08;25.70;99.90
18597;DHT22;9428;50.950;6.912;2023-08-21T15:22:59;25.80;99.90
18597;DHT22;9428;50.950;6.912;2023-08-21T15:25:46;25.70;99.90
18597;DHT22;9428;50.950;6.912;2023-08-21T15:28:33;25.50;99.90
18597;DHT22;9428;50.950;6.912;2023-08-21T15:31:20;25.70;99.90
18597;DHT22;9428;50.950;6.912;2023-08-21T15:34:07;25.90;99.90
18597;DHT22;9428;50.950;6.912;2023-08-21T15:36:55;26.00;99.90
18597;DHT22;9428;50.950;6.912;2023-08-21T15:39:44;26.00;99.90
18597;DHT22;9428;50.950;6.912;2023-08-21T15:42:31;25.70;99.90
18597;DHT22;9428;50.950;6.912;2023-08-21T15:45:18;25.70;99.90
18597;DHT22;9428;50.950;6.912;2023-08-21T15:48:07;25.80;99.90
18597;DHT22;9428;50.950;6.912;2023-08-21T15:50:54;25.70;99.90
18597;DHT22;9428;50.950;6.912;2023-08-21T15:53:41;25.80;99.90
18597;DHT22;9428;50.950;6.912;2023-08-21T15:56:30;25.90;99.90
18597;DHT22;9428;50.950;6.912;2023-08-21T15:59:17;26.00;99.90
18597;DHT22;9428;50.950;6.912;2023-08-21T16:02:04;25.90;99.90
18597;DHT22;9428;50.950;6.912;2023-08-21T16:04:51;25.80;99.90
18597;DHT22;9428;50.950;6.912;2023-08-21T16:07:38;25.90;99.90
18597;DHT22;9428;50.950;6.912;2023-08-21T16:10:26;25.80;99.90
18597;DHT22;9428;50.950;6.912;2023-08-21T16:13:15;25.70;99.90
18597;DHT22;9428;50.950;6.912;2023-08-21T16:16:03;25.70;99.90
18597;DHT22;9428;50.950;6.912;2023-08-21T16:18:50;25.70;99.90
18597;DHT22;9428;50.950;6.912;2023-08-21T16:21:37;25.70;99.90
18597;DHT22;9428;50.950;6.912;2023-08-21T16:24:25;25.70;99.90
18597;DHT22;9428;50.950;6.912;2023-08-21T16:27:13;25.80;99.90
18597;DHT22;9428;50.950;6.912;2023-08-21T16:30:01;25.70;99.90
18597;DHT22;9428;50.950;6.912;2023-08-21T16:32:49;25.60;99.90
18597;DHT22;9428;50.950;6.912;2023-08-21T16:35:37;25.50;99.90
18597;DHT22;9428;50.950;6.912;2023-08-21T16:38:24;25.50;99.90
18597;DHT22;9428;50.950;6.912;2023-08-21T16:41:12;25.60;99.90
18597;DHT22;9428;50.950;6.912;2023-08-21T16:43:59;25.60;99.90
18597;DHT22;9428;50.950;6.912;2023-08-21T16:46:48;25.50;99.90
18597;DHT22;9428;50.950;6.912;2023-08-21T16:49:35;25.40;99.90
18597;DHT22;9428;50.950;6.912;2023-08-21T16:52:22;25.50;99.90
18597;DHT22;9428;50.950;6.912;2023-08-21T16:55:10;25.70;99.90
18597;DHT22;9428;50.950;6.912;2023-08-21T16:57:57;25.50;99.90
18597;DHT22;9428;50.950;6.912;2023-08-21T17:00:46;25.50;99.90
18597;DHT22;9428;50.950;6.912;2023-08-21T17:03:35;25.40;99.90
18597;DHT22;9428;50.950;6.912;2023-08-21T17:06:22;25.50;99.90
18597;DHT22;9428;50.950;6.912;2023-08-21T17:09:10;25.50;99.90
18597;DHT22;9428;50.950;6.912;2023-08-21T17:11:57;25.60;99.90
18597;DHT22;9428;50.950;6.912;2023-08-21T17:14:44;25.40;99.90
18597;DHT22;9428;50.950;6.912;2023-08-21T17:17:32;25.30;99.90
18597;DHT22;9428;50.950;6.912;2023-08-21T17:20:20;25.40;99.90
18597;DHT22;9428;50.950;6.912;2023-08-21T17:23:11;25.40;99.90
18597;DHT22;9428;50.950;6.912;2023-08-21T17:25:58;25.30;99.90
18597;DHT22;9428;50.950;6.912;2023-08-21T17:28:46;25.20;99.90
18597;DHT22;9428;50.950;6.912;2023-08-21T17:31:33;25.30;99.90
18597;DHT22;9428;50.950;6.912;2023-08-21T17:34:21;25.20;99.90
18597;DHT22;9428;50.950;6.912;2023-08-21T17:37:09;25.20;99.90
18597;DHT22;9428;50.950;6.912;2023-08-21T17:39:57;25.10;99.90
18597;DHT22;9428;50.950;6.912;2023-08-21T17:42:45;25.00;99.90
18597;DHT22;9428;50.950;6.912;2023-08-21T17:45:32;24.20;99.90
18597;DHT22;9428;50.950;6.912;2023-08-21T17:48:20;25.20;99.90
18597;DHT22;9428;50.950;6.912;2023-08-21T17:51:08;25.20;99.90
18597;DHT22;9428;50.950;6.912;2023-08-21T17:53:56;25.00;99.90
18597;DHT22;9428;50.950;6.912;2023-08-21T17:56:44;25.00;99.90
18597;DHT22;9428;50.950;6.912;2023-08-21T17:59:31;25.00;99.90